Time;durP1;ratioP1;P1;durP2;ratioP2;P2;SDS_P1;SDS_P2;PMS_P1;PMS_P2;Temp;Humidity;BMP_temperature;BMP_pressure;BME280_temperature;BME280_humidity;BME280_pressure;Samples;Min_cycle;Max_cycle;Signal;HPM_P1;HPM_P2
2023/02/21 10:12:08;;;;;;;17.10;14.80;;;16.50;81.20;;;;;;5127325;27;20498;-84
2023/02/21 10:14:53;;;;;;;16.90;15.50;;;18.00;75.80;;;;;;5127229;27;20436;-83
2023/02/21 10:17:25;;;;;;;16.90;15.87;;;18.50;74.60;;;;;;5127422;27;20881;-85
2023/02/21 10:19:54;;;;;;;18.17;16.30;;;18.80;72.90;;;;;;5127057;27;20809;-84
2023/02/21 10:22:28;;;;;;;18.07;16.27;;;18.80;71.90;;;;;;5127173;27;20847;-85
2023/02/21 10:24:55;;;;;;;16.93;15.37;;;18.90;72.10;;;;;;5127188;27;20805;-85
2023/02/21 10:27:25;;;;;;;23.97;16.07;;;18.90;70.90;;;;;;5126951;27;20448;-84
2023/02/21 10:29:56;;;;;;;15.70;14.57;;;18.90;71.70;;;;;;5127273;27;20484;-83
2023/02/21 10:32:24;;;;;;;17.70;15.73;;;19.10;70.50;;;;;;5127210;27;20444;-84
2023/02/21 10:34:53;;;;;;;16.97;15.57;;;19.20;71.10;;;;;;5126900;27;20593;-83
2023/02/21 10:37:33;;;;;;;18.07;16.33;;;19.40;69.70;;;;;;5126854;27;20481;-82
2023/02/21 10:40:05;;;;;;;19.37;16.90;;;20.30;68.30;;;;;;5127158;27;20515;-82
2023/02/21 10:42:40;;;;;;;19.47;16.90;;;20.10;67.10;;;;;;5126787;27;20488;-83
2023/02/21 10:45:08;;;;;;;18.43;16.70;;;20.40;66.80;;;;;;5126895;27;20463;-83
2023/02/21 10:47:47;;;;;;;20.67;18.60;;;20.90;66.00;;;;;;5126628;27;20505;-83
2023/02/21 10:50:14;;;;;;;19.43;17.30;;;21.00;64.70;;;;;;5126591;27;20480;-82
2023/02/21 10:52:47;;;;;;;18.40;16.80;;;21.00;65.00;;;;;;5126664;28;20448;-82
2023/02/21 10:55:17;;;;;;;17.07;15.60;;;22.10;62.70;;;;;;5126733;28;20444;-83
2023/02/21 10:57:49;;;;;;;18.77;17.17;;;23.10;60.00;;;;;;5126405;27;20460;-83
2023/02/21 11:00:23;;;;;;;17.37;16.03;;;24.20;57.30;;;;;;5126444;27;20498;-82
2023/02/21 11:02:55;;;;;;;19.10;17.80;;;24.10;55.30;;;;;;5126580;27;20946;-83
2023/02/21 11:05:23;;;;;;;17.80;16.10;;;22.60;57.00;;;;;;5126292;27;20441;-83
2023/02/21 11:07:59;;;;;;;16.73;15.63;;;22.50;58.20;;;;;;5126435;27;20803;-83
2023/02/21 11:10:32;;;;;;;17.20;16.00;;;23.20;57.50;;;;;;5126311;27;20488;-82
2023/02/21 11:13:07;;;;;;;16.93;15.10;;;23.80;56.40;;;;;;5112120;28;20441;-82
2023/02/21 11:15:34;;;;;;;15.90;14.60;;;23.80;54.80;;;;;;5112433;28;20521;-83
2023/02/21 11:18:11;;;;;;;16.27;15.00;;;23.50;55.70;;;;;;5112370;28;20445;-82
2023/02/21 11:20:38;;;;;;;18.30;16.80;;;24.20;55.30;;;;;;5112634;28;20437;-83
2023/02/21 11:23:16;;;;;;;16.30;15.33;;;24.50;53.60;;;;;;5112264;28;20453;-83
2023/02/21 11:25:43;;;;;;;16.40;15.30;;;24.40;53.60;;;;;;5112310;27;20456;-82
2023/02/21 11:28:21;;;;;;;16.47;15.20;;;24.60;52.50;;;;;;5112677;28;20437;-83
2023/02/21 11:31:02;;;;;;;15.80;14.30;;;24.40;52.90;;;;;;5112701;28;20541;-82
2023/02/21 11:33:31;;;;;;;16.23;15.13;;;24.40;53.20;;;;;;5112180;28;20449;-82
2023/02/21 11:36:10;;;;;;;15.50;14.40;;;23.90;52.90;;;;;;5112392;28;20453;-82
2023/02/21 11:38:38;;;;;;;15.43;14.53;;;23.90;53.40;;;;;;5112133;28;20940;-82
2023/02/21 11:41:17;;;;;;;17.63;16.27;;;24.50;52.30;;;;;;5112076;28;20445;-82
2023/02/21 11:43:48;;;;;;;15.53;14.43;;;24.60;51.80;;;;;;5112453;28;20453;-81
2023/02/21 11:46:21;;;;;;;16.23;14.73;;;24.30;51.40;;;;;;5112095;28;20453;-82
2023/02/21 11:48:57;;;;;;;14.93;13.73;;;24.60;51.70;;;;;;5112037;28;20648;-81
2023/02/21 11:51:32;;;;;;;14.07;13.27;;;25.50;50.40;;;;;;5112029;28;20473;-81
2023/02/21 11:53:59;;;;;;;15.73;14.60;;;26.10;48.90;;;;;;5112240;28;20452;-81
2023/02/21 11:56:34;;;;;;;15.10;14.13;;;26.60;47.50;;;;;;5112177;28;20445;-82
2023/02/21 11:59:12;;;;;;;14.00;12.97;;;26.80;46.30;;;;;;5111777;28;20456;-82
2023/02/21 12:01:50;;;;;;;12.77;12.07;;;26.70;45.00;;;;;;5112167;28;20449;-81
2023/02/21 12:04:28;;;;;;;13.30;12.60;;;26.10;45.60;;;;;;5111741;28;20445;-81
2023/02/21 12:07:04;;;;;;;12.80;12.00;;;25.90;45.90;;;;;;5112146;27;20477;-81
2023/02/21 12:09:38;;;;;;;12.77;12.07;;;26.10;46.10;;;;;;5111858;28;20481;-80
2023/02/21 12:12:17;;;;;;;12.63;11.90;;;26.20;45.60;;;;;;5111217;28;20438;-80
2023/02/21 12:15:00;;;;;;;12.30;11.80;;;26.90;44.00;;;;;;5111416;28;20441;-81
2023/02/21 12:17:51;;;;;;;12.60;11.90;;;27.80;43.40;;;;;;5112252;28;20481;-81
2023/02/21 12:20:26;;;;;;;13.03;12.10;;;27.50;41.50;;;;;;5111588;28;20529;-79
2023/02/21 12:23:07;;;;;;;13.00;12.30;;;25.70;44.00;;;;;;5110598;28;20442;-80
2023/02/21 12:25:49;;;;;;;12.93;12.33;;;25.20;44.70;;;;;;5111309;28;20438;-81
2023/02/21 12:28:25;;;;;;;13.10;12.60;;;24.50;46.10;;;;;;5111063;28;20453;-80
2023/02/21 12:31:06;;;;;;;12.10;11.60;;;25.30;45.60;;;;;;5110823;28;20510;-79
2023/02/21 12:33:44;;;;;;;12.90;12.37;;;25.30;45.20;;;;;;5111057;28;20956;-81
2023/02/21 12:36:24;;;;;;;13.03;11.93;;;25.00;45.60;;;;;;5111599;28;20920;-82
2023/02/21 12:39:04;;;;;;;12.50;11.77;;;25.50;45.40;;;;;;5110936;28;20441;-79
2023/02/21 12:41:55;;;;;;;11.20;10.83;;;26.00;44.00;;;;;;5111012;28;20514;-79
2023/02/21 12:44:26;;;;;;;12.27;11.67;;;25.50;45.00;;;;;;5101989;28;20453;-77
2023/02/21 12:46:58;;;;;;;12.80;12.20;;;26.10;44.00;;;;;;5110857;28;20437;-80
2023/02/21 12:49:31;;;;;;;12.07;11.47;;;25.70;43.90;;;;;;5111221;28;20536;-81
2023/02/21 12:52:01;;;;;;;11.60;10.90;;;25.20;45.00;;;;;;5110697;28;20488;-78
2023/02/21 12:54:37;;;;;;;11.60;11.13;;;24.50;45.60;;;;;;5110778;28;20850;-80
2023/02/21 12:57:10;;;;;;;12.57;12.00;;;24.50;46.00;;;;;;5110915;28;20866;-78
2023/02/21 12:59:49;;;;;;;11.80;11.23;;;25.70;44.80;;;;;;5110704;28;20947;-80
2023/02/21 13:02:23;;;;;;;11.73;11.20;;;25.10;44.20;;;;;;5110445;27;20819;-79
2023/02/21 13:04:55;;;;;;;13.30;12.70;;;25.30;44.30;;;;;;5110599;28;20830;-79
2023/02/21 13:07:27;;;;;;;11.67;11.07;;;24.60;45.00;;;;;;5110287;28;20473;-79
2023/02/21 13:10:00;;;;;;;12.40;11.83;;;24.70;45.10;;;;;;5110358;28;20613;-78
2023/02/21 13:12:33;;;;;;;12.87;12.27;;;23.80;46.40;;;;;;5110497;28;20444;-78
2023/02/21 13:15:04;;;;;;;11.33;10.93;;;24.00;46.50;;;;;;5110458;28;20450;-78
2023/02/21 13:17:32;;;;;;;11.97;11.43;;;25.00;45.50;;;;;;5110426;28;20502;-79
2023/02/21 13:20:04;;;;;;;11.60;11.10;;;26.20;43.90;;;;;;5110292;28;20461;-79
2023/02/21 13:25:53;;;;;;;11.63;11.17;;;25.00;44.80;;;;;;5110285;28;20603;-79
2023/02/21 13:28:22;;;;;;;12.10;11.40;;;24.90;44.80;;;;;;5110228;28;20498;-79
2023/02/21 13:30:51;;;;;;;12.53;12.00;;;24.80;44.70;;;;;;5109941;28;20583;-79
2023/02/21 13:33:29;;;;;;;11.87;11.37;;;24.50;45.10;;;;;;5109919;28;20457;-79
2023/02/21 13:36:00;;;;;;;11.90;11.30;;;24.50;45.40;;;;;;5109826;28;20441;-79
2023/02/21 13:38:29;;;;;;;11.20;10.70;;;23.60;46.10;;;;;;5109905;28;20551;-79
2023/02/21 13:41:05;;;;;;;12.20;11.70;;;22.70;47.40;;;;;;5109872;28;20481;-79
2023/02/21 13:43:34;;;;;;;11.90;11.20;;;21.80;48.30;;;;;;5109622;28;20449;-79
2023/02/21 13:46:39;;;;;;;10.60;10.20;;;21.00;49.60;;;;;;5109729;28;20830;-80
2023/02/21 13:49:43;;;;;;;10.10;9.70;;;20.50;50.60;;;;;;5093766;28;20861;-80
2023/02/21 13:52:48;;;;;;;11.23;10.63;;;19.80;51.80;;;;;;5109604;28;20493;-79
2023/02/21 13:55:26;;;;;;;10.67;10.13;;;18.80;53.30;;;;;;5090957;28;20509;-79
2023/02/21 13:58:24;;;;;;;10.57;10.07;;;18.50;54.50;;;;;;5109387;28;20447;-79
2023/02/21 14:00:53;;;;;;;10.70;10.10;;;18.50;54.60;;;;;;5109243;28;20481;-79
2023/02/21 14:03:33;;;;;;;10.17;9.67;;;18.30;54.90;;;;;;5109294;28;20534;-79
2023/02/21 14:06:33;;;;;;;10.57;10.00;;;18.20;55.60;;;;;;5109373;28;20812;-79
2023/02/21 14:09:05;;;;;;;11.03;10.43;;;18.10;55.90;;;;;;5109385;28;20445;-78
2023/02/21 14:11:37;;;;;;;10.60;9.70;;;18.10;56.30;;;;;;5109259;28;20848;-78
2023/02/21 14:14:18;;;;;;;11.20;10.50;;;18.10;56.60;;;;;;5109330;28;20850;-78
2023/02/21 14:16:49;;;;;;;10.80;10.40;;;18.10;56.50;;;;;;5109692;28;20476;-78
2023/02/21 14:19:22;;;;;;;11.40;11.00;;;18.00;56.60;;;;;;5109360;28;21026;-78
2023/02/21 14:21:55;;;;;;;11.00;10.40;;;18.00;57.50;;;;;;5109134;28;20441;-79
2023/02/21 14:24:26;;;;;;;12.00;11.50;;;18.00;57.60;;;;;;5109330;28;20943;-79
2023/02/21 14:26:56;;;;;;;12.43;11.90;;;18.00;57.40;;;;;;5109600;28;20437;-79
2023/02/21 14:29:34;;;;;;;12.07;11.57;;;18.10;57.30;;;;;;5109308;28;20534;-78
2023/02/21 14:32:25;;;;;;;11.87;10.87;;;18.10;57.10;;;;;;5109156;28;20488;-78
2023/02/21 14:34:55;;;;;;;10.57;10.17;;;18.00;57.20;;;;;;5109099;28;20449;-78
2023/02/21 14:37:27;;;;;;;11.43;10.90;;;18.00;57.80;;;;;;5108951;28;20452;-78
2023/02/21 14:39:59;;;;;;;11.70;11.00;;;18.00;57.80;;;;;;5109278;28;20441;-78
2023/02/21 14:42:39;;;;;;;11.10;10.70;;;17.90;57.80;;;;;;5109319;28;20441;-79
2023/02/21 14:45:26;;;;;;;11.20;10.60;;;18.00;57.80;;;;;;5109083;28;20465;-78
2023/02/21 14:48:26;;;;;;;10.43;10.03;;;18.00;57.80;;;;;;5112163;28;20449;-78
2023/02/21 14:51:10;;;;;;;10.30;9.90;;;18.00;58.20;;;;;;5112855;28;20576;-78
2023/02/21 14:53:57;;;;;;;10.40;9.90;;;18.00;58.40;;;;;;5112870;28;20437;-78
2023/02/21 14:56:40;;;;;;;9.87;9.50;;;18.00;58.10;;;;;;5113901;28;20506;-78
2023/02/21 14:59:29;;;;;;;10.60;10.20;;;18.00;58.00;;;;;;5112808;28;20456;-78
2023/02/21 15:02:07;;;;;;;9.80;9.30;;;18.00;58.10;;;;;;5113834;28;20437;-79
2023/02/21 15:04:41;;;;;;;10.23;9.70;;;17.90;57.90;;;;;;5113875;28;20674;-79
2023/02/21 15:07:17;;;;;;;9.40;8.90;;;17.80;57.90;;;;;;5113095;28;20461;-79
2023/02/21 15:09:44;;;;;;;10.20;9.80;;;17.80;57.80;;;;;;5114032;28;20449;-79
2023/02/21 15:12:16;;;;;;;10.50;10.00;;;17.80;58.40;;;;;;5113103;28;20488;-79
2023/02/21 15:14:48;;;;;;;10.97;10.43;;;17.80;59.10;;;;;;5113039;28;20936;-78
2023/02/21 15:17:19;;;;;;;10.93;10.43;;;17.90;59.10;;;;;;5112504;28;20453;-79
2023/02/21 15:19:46;;;;;;;10.23;9.67;;;17.80;60.00;;;;;;5115938;28;20449;-77
2023/02/21 15:22:20;;;;;;;10.40;9.70;;;17.80;61.00;;;;;;5115777;28;20969;-79
2023/02/21 15:25:23;;;;;;;11.17;10.60;;;17.70;61.70;;;;;;5112126;28;20506;-78
2023/02/21 15:28:03;;;;;;;11.50;10.90;;;17.60;62.10;;;;;;5079631;28;20567;-78
2023/02/21 15:30:37;;;;;;;10.10;9.70;;;17.60;62.70;;;;;;5112108;28;20506;-78
2023/02/21 15:33:14;;;;;;;9.93;9.47;;;17.60;62.80;;;;;;5112116;28;20864;-79
2023/02/21 15:35:46;;;;;;;10.10;9.60;;;17.40;62.40;;;;;;5112472;28;20456;-78
2023/02/21 15:38:18;;;;;;;12.60;12.00;;;17.40;62.90;;;;;;5113631;28;20587;-78
2023/02/21 15:40:47;;;;;;;10.47;9.97;;;17.30;63.30;;;;;;5111899;28;20469;-78
2023/02/21 15:43:24;;;;;;;9.00;8.60;;;17.30;63.10;;;;;;5112833;28;20453;-77
2023/02/21 15:45:54;;;;;;;10.53;10.13;;;17.20;63.30;;;;;;5114227;28;20449;-77
2023/02/21 15:48:21;;;;;;;10.50;10.10;;;17.20;63.60;;;;;;5113745;28;20453;-78
2023/02/21 15:50:48;;;;;;;10.30;9.73;;;17.20;64.30;;;;;;5113971;28;20473;-78
2023/02/21 15:53:19;;;;;;;10.93;10.40;;;17.10;64.60;;;;;;5112990;28;20446;-78
2023/02/21 15:55:47;;;;;;;10.40;9.90;;;17.10;65.00;;;;;;5114070;28;20567;-78
2023/02/21 15:58:19;;;;;;;10.80;10.30;;;17.00;65.90;;;;;;5114931;28;20484;-79
2023/02/21 16:00:47;;;;;;;10.47;10.03;;;17.00;66.00;;;;;;5117341;27;20441;-79
2023/02/21 16:03:32;;;;;;;12.63;12.10;;;16.90;66.50;;;;;;5119551;28;20479;-78
2023/02/21 16:06:23;;;;;;;11.00;10.23;;;16.80;68.40;;;;;;5118025;28;20445;-78
2023/02/21 16:08:57;;;;;;;10.17;9.67;;;16.70;69.80;;;;;;5125460;28;20476;-77
2023/02/21 16:11:27;;;;;;;10.70;10.10;;;16.50;71.20;;;;;;5123807;28;20528;-78
2023/02/21 16:13:55;;;;;;;12.53;11.73;;;16.40;72.50;;;;;;5121763;28;20858;-78
2023/02/21 16:16:21;;;;;;;12.40;11.70;;;16.30;73.30;;;;;;5114027;28;20444;-77
2023/02/21 16:18:56;;;;;;;11.13;10.33;;;16.20;74.80;;;;;;5111356;28;20445;-78
2023/02/21 16:21:27;;;;;;;10.50;9.80;;;16.10;76.00;;;;;;5111099;28;20540;-78
2023/02/21 16:23:54;;;;;;;11.30;10.70;;;16.00;77.70;;;;;;5111209;28;20869;-78
2023/02/21 16:26:26;;;;;;;12.00;11.33;;;15.90;78.80;;;;;;5110842;28;20446;-78
2023/02/21 16:28:57;;;;;;;11.90;11.27;;;15.70;80.10;;;;;;5110918;28;20481;-78
2023/02/21 16:31:26;;;;;;;12.57;11.53;;;15.60;81.40;;;;;;5110764;28;20485;-78
2023/02/21 16:33:53;;;;;;;12.00;11.10;;;15.40;82.70;;;;;;5110629;28;20503;-78
2023/02/21 16:36:24;;;;;;;11.93;11.20;;;15.30;84.80;;;;;;5110826;28;20894;-77
2023/02/21 16:38:51;;;;;;;12.40;11.70;;;15.10;86.40;;;;;;5110588;28;20799;-77
2023/02/21 16:41:18;;;;;;;12.20;11.30;;;15.00;88.00;;;;;;5110723;28;20457;-78
2023/02/21 16:43:45;;;;;;;12.07;11.27;;;14.90;89.10;;;;;;5110478;28;20574;-77
2023/02/21 16:46:13;;;;;;;11.57;10.77;;;14.80;89.90;;;;;;5110676;28;20454;-77
2023/02/21 16:48:40;;;;;;;11.60;10.87;;;14.60;90.50;;;;;;5110551;28;20453;-78
2023/02/21 16:51:13;;;;;;;11.00;10.30;;;14.50;91.20;;;;;;5110330;28;20456;-78
2023/02/21 16:53:40;;;;;;;12.47;10.33;;;14.20;91.80;;;;;;5110536;27;20441;-78
2023/02/21 16:56:07;;;;;;;11.57;10.97;;;14.10;92.80;;;;;;5110312;27;20503;-77
2023/02/21 16:58:36;;;;;;;11.93;11.13;;;13.90;93.60;;;;;;5110421;28;20473;-77
2023/02/21 17:01:06;;;;;;;12.30;11.33;;;13.80;94.10;;;;;;5110273;28;20822;-77
2023/02/21 17:03:34;;;;;;;11.30;10.30;;;13.80;94.90;;;;;;5110074;28;20502;-77
2023/02/21 17:06:01;;;;;;;11.83;10.33;;;13.70;95.00;;;;;;5110016;28;20452;-77
2023/02/21 17:08:28;;;;;;;12.70;11.60;;;13.70;95.30;;;;;;5109939;28;20473;-78
2023/02/21 17:10:56;;;;;;;12.00;11.00;;;13.70;95.60;;;;;;5109666;28;20825;-78
2023/02/21 17:13:23;;;;;;;13.63;11.40;;;13.50;95.80;;;;;;5109999;28;20567;-78
2023/02/21 17:15:50;;;;;;;13.70;12.70;;;13.40;96.60;;;;;;5109877;28;20799;-77
2023/02/21 17:18:16;;;;;;;12.70;10.90;;;13.20;97.10;;;;;;5109971;28;20442;-78
2023/02/21 17:20:45;;;;;;;12.73;11.70;;;13.10;98.10;;;;;;5110012;28;20448;-78
2023/02/21 17:23:12;;;;;;;20.53;13.27;;;13.00;98.70;;;;;;5110058;28;20866;-78
2023/02/21 17:25:38;;;;;;;13.03;11.73;;;12.90;99.00;;;;;;5109824;28;20449;-78
2023/02/21 17:28:05;;;;;;;12.27;11.07;;;12.70;99.90;;;;;;5109680;28;20449;-77
2023/02/21 17:30:32;;;;;;;13.10;11.93;;;12.60;99.90;;;;;;5109493;28;20951;-77
2023/02/21 17:32:59;;;;;;;14.33;12.90;;;12.50;99.90;;;;;;5109584;28;21007;-77
2023/02/21 17:35:27;;;;;;;15.03;13.43;;;12.40;99.90;;;;;;5109651;28;20457;-77
2023/02/21 17:37:55;;;;;;;21.77;13.60;;;12.30;99.90;;;;;;5109641;28;20457;-77
2023/02/21 17:40:22;;;;;;;14.03;12.83;;;12.10;99.90;;;;;;5109562;28;20460;-77
2023/02/21 17:42:49;;;;;;;14.43;12.93;;;12.10;99.90;;;;;;5109429;28;20449;-77
2023/02/21 17:45:18;;;;;;;14.73;13.53;;;12.00;99.90;;;;;;5109297;28;20458;-77
2023/02/21 17:47:44;;;;;;;14.87;13.50;;;11.80;99.90;;;;;;5109592;28;20545;-77
2023/02/21 17:50:12;;;;;;;15.27;13.77;;;11.70;99.90;;;;;;5109721;28;20852;-77
2023/02/21 17:52:39;;;;;;;14.20;12.77;;;11.60;99.90;;;;;;5109406;28;20517;-77
2023/02/21 17:55:11;;;;;;;14.87;13.63;;;11.60;99.90;;;;;;5109593;28;20453;-78
2023/02/21 17:57:39;;;;;;;15.40;14.10;;;11.50;99.90;;;;;;5110027;28;20452;-78
